sensor_id;sensor_type;location;lat;lon;timestamp;P1;durP1;ratioP1;P2;durP2;ratioP2
31694;SDS011;18289;51.330;4.946;2024-03-23T00:53:14;14.13;;;4.88;;
31694;SDS011;18289;51.330;4.946;2024-03-23T00:55:43;13.50;;;5.78;;
31694;SDS011;18289;51.330;4.946;2024-03-23T00:58:09;17.00;;;5.30;;
31694;SDS011;18289;51.330;4.946;2024-03-23T01:00:35;12.90;;;4.88;;
31694;SDS011;18289;51.330;4.946;2024-03-23T01:03:01;11.90;;;5.13;;
31694;SDS011;18289;51.330;4.946;2024-03-23T01:05:27;17.70;;;5.15;;
31694;SDS011;18289;51.330;4.946;2024-03-23T01:07:52;16.77;;;4.95;;
31694;SDS011;18289;51.330;4.946;2024-03-23T01:10:18;13.27;;;4.60;;
31694;SDS011;18289;51.330;4.946;2024-03-23T01:12:44;13.30;;;5.07;;
31694;SDS011;18289;51.330;4.946;2024-03-23T01:15:14;13.00;;;4.75;;
31694;SDS011;18289;51.330;4.946;2024-03-23T01:17:39;17.63;;;5.00;;
31694;SDS011;18289;51.330;4.946;2024-03-23T01:20:05;18.33;;;5.10;;
31694;SDS011;18289;51.330;4.946;2024-03-23T01:22:32;15.93;;;4.88;;
31694;SDS011;18289;51.330;4.946;2024-03-23T01:24:58;13.48;;;4.95;;
31694;SDS011;18289;51.330;4.946;2024-03-23T01:27:24;20.77;;;5.47;;
31694;SDS011;18289;51.330;4.946;2024-03-23T01:29:50;17.10;;;5.88;;
31694;SDS011;18289;51.330;4.946;2024-03-23T01:32:17;15.07;;;5.15;;
31694;SDS011;18289;51.330;4.946;2024-03-23T01:34:43;13.90;;;4.85;;
31694;SDS011;18289;51.330;4.946;2024-03-23T01:37:10;14.68;;;5.63;;
31694;SDS011;18289;51.330;4.946;2024-03-23T01:39:35;12.00;;;4.70;;
31694;SDS011;18289;51.330;4.946;2024-03-23T01:42:01;15.68;;;4.50;;
31694;SDS011;18289;51.330;4.946;2024-03-23T01:44:27;10.30;;;4.22;;
31694;SDS011;18289;51.330;4.946;2024-03-23T01:46:53;17.55;;;4.88;;
31694;SDS011;18289;51.330;4.946;2024-03-23T01:49:19;14.45;;;4.43;;
31694;SDS011;18289;51.330;4.946;2024-03-23T01:51:45;17.30;;;4.53;;
31694;SDS011;18289;51.330;4.946;2024-03-23T01:54:11;14.68;;;4.55;;
31694;SDS011;18289;51.330;4.946;2024-03-23T01:56:37;14.52;;;4.22;;
31694;SDS011;18289;51.330;4.946;2024-03-23T01:59:06;10.18;;;3.95;;
31694;SDS011;18289;51.330;4.946;2024-03-23T02:01:32;11.23;;;4.03;;
31694;SDS011;18289;51.330;4.946;2024-03-23T02:04:01;13.50;;;4.35;;
31694;SDS011;18289;51.330;4.946;2024-03-23T02:06:27;16.65;;;6.25;;
31694;SDS011;18289;51.330;4.946;2024-03-23T02:08:53;12.65;;;4.72;;
31694;SDS011;18289;51.330;4.946;2024-03-23T02:11:20;10.25;;;4.45;;
31694;SDS011;18289;51.330;4.946;2024-03-23T02:13:46;11.20;;;5.05;;
31694;SDS011;18289;51.330;4.946;2024-03-23T02:16:12;13.48;;;4.40;;
31694;SDS011;18289;51.330;4.946;2024-03-23T02:18:40;11.18;;;4.53;;
31694;SDS011;18289;51.330;4.946;2024-03-23T02:21:06;11.50;;;5.82;;
31694;SDS011;18289;51.330;4.946;2024-03-23T02:23:32;11.50;;;5.20;;
31694;SDS011;18289;51.330;4.946;2024-03-23T02:25:58;12.95;;;5.00;;
31694;SDS011;18289;51.330;4.946;2024-03-23T02:28:24;13.02;;;5.28;;
31694;SDS011;18289;51.330;4.946;2024-03-23T02:30:49;11.15;;;5.28;;
31694;SDS011;18289;51.330;4.946;2024-03-23T02:33:15;11.15;;;4.75;;
31694;SDS011;18289;51.330;4.946;2024-03-23T02:35:41;11.73;;;5.00;;
31694;SDS011;18289;51.330;4.946;2024-03-23T02:38:08;10.25;;;5.00;;
31694;SDS011;18289;51.330;4.946;2024-03-23T02:40:34;10.77;;;5.03;;
31694;SDS011;18289;51.330;4.946;2024-03-23T02:43:00;10.65;;;4.82;;
31694;SDS011;18289;51.330;4.946;2024-03-23T02:45:25;9.55;;;4.57;;
31694;SDS011;18289;51.330;4.946;2024-03-23T02:47:51;7.80;;;4.35;;
31694;SDS011;18289;51.330;4.946;2024-03-23T02:50:18;12.55;;;4.38;;
31694;SDS011;18289;51.330;4.946;2024-03-23T02:52:44;8.35;;;4.40;;
31694;SDS011;18289;51.330;4.946;2024-03-23T02:55:10;8.68;;;4.72;;
31694;SDS011;18289;51.330;4.946;2024-03-23T02:57:36;8.77;;;4.35;;
31694;SDS011;18289;51.330;4.946;2024-03-23T03:00:02;15.70;;;5.38;;
31694;SDS011;18289;51.330;4.946;2024-03-23T03:02:28;16.58;;;4.95;;
31694;SDS011;18289;51.330;4.946;2024-03-23T03:04:54;14.57;;;5.20;;
31694;SDS011;18289;51.330;4.946;2024-03-23T03:07:20;15.48;;;6.57;;
31694;SDS011;18289;51.330;4.946;2024-03-23T03:09:45;9.73;;;5.22;;
31694;SDS011;18289;51.330;4.946;2024-03-23T03:12:11;17.95;;;5.75;;
31694;SDS011;18289;51.330;4.946;2024-03-23T03:14:37;12.88;;;5.53;;
31694;SDS011;18289;51.330;4.946;2024-03-23T03:17:03;13.23;;;5.28;;
31694;SDS011;18289;51.330;4.946;2024-03-23T03:19:28;12.70;;;5.20;;
31694;SDS011;18289;51.330;4.946;2024-03-23T03:21:54;12.82;;;4.82;;
31694;SDS011;18289;51.330;4.946;2024-03-23T03:24:21;15.65;;;5.88;;
31694;SDS011;18289;51.330;4.946;2024-03-23T03:26:47;15.52;;;5.22;;
31694;SDS011;18289;51.330;4.946;2024-03-23T03:29:12;15.35;;;5.40;;
31694;SDS011;18289;51.330;4.946;2024-03-23T03:31:38;14.88;;;5.43;;
31694;SDS011;18289;51.330;4.946;2024-03-23T03:34:04;15.98;;;5.28;;
31694;SDS011;18289;51.330;4.946;2024-03-23T03:36:30;14.20;;;6.10;;
31694;SDS011;18289;51.330;4.946;2024-03-23T03:38:56;13.95;;;5.68;;
31694;SDS011;18289;51.330;4.946;2024-03-23T03:41:22;15.43;;;6.07;;
31694;SDS011;18289;51.330;4.946;2024-03-23T03:43:48;19.75;;;6.30;;
31694;SDS011;18289;51.330;4.946;2024-03-23T03:46:14;15.93;;;5.75;;
31694;SDS011;18289;51.330;4.946;2024-03-23T03:48:39;15.05;;;6.22;;
31694;SDS011;18289;51.330;4.946;2024-03-23T03:51:05;12.55;;;5.72;;
31694;SDS011;18289;51.330;4.946;2024-03-23T03:53:31;15.18;;;6.30;;
31694;SDS011;18289;51.330;4.946;2024-03-23T03:56:00;16.48;;;7.10;;
31694;SDS011;18289;51.330;4.946;2024-03-23T03:58:26;16.00;;;6.88;;
31694;SDS011;18289;51.330;4.946;2024-03-23T04:00:52;16.73;;;6.90;;
31694;SDS011;18289;51.330;4.946;2024-03-23T04:03:18;16.40;;;7.65;;
31694;SDS011;18289;51.330;4.946;2024-03-23T04:05:49;18.67;;;7.18;;
31694;SDS011;18289;51.330;4.946;2024-03-23T04:08:19;21.02;;;7.78;;
31694;SDS011;18289;51.330;4.946;2024-03-23T04:10:46;19.80;;;7.22;;
31694;SDS011;18289;51.330;4.946;2024-03-23T04:13:14;19.42;;;6.82;;
31694;SDS011;18289;51.330;4.946;2024-03-23T04:18:07;21.98;;;6.90;;
31694;SDS011;18289;51.330;4.946;2024-03-23T04:20:33;19.65;;;8.02;;
31694;SDS011;18289;51.330;4.946;2024-03-23T04:22:59;14.25;;;6.95;;
31694;SDS011;18289;51.330;4.946;2024-03-23T04:25:25;20.33;;;8.18;;
31694;SDS011;18289;51.330;4.946;2024-03-23T04:27:51;19.38;;;8.55;;
31694;SDS011;18289;51.330;4.946;2024-03-23T04:30:17;17.42;;;7.07;;
31694;SDS011;18289;51.330;4.946;2024-03-23T04:32:43;20.45;;;7.65;;
31694;SDS011;18289;51.330;4.946;2024-03-23T04:35:09;17.70;;;7.68;;
31694;SDS011;18289;51.330;4.946;2024-03-23T04:37:35;26.98;;;8.82;;
31694;SDS011;18289;51.330;4.946;2024-03-23T04:40:02;23.42;;;8.18;;
31694;SDS011;18289;51.330;4.946;2024-03-23T04:42:28;23.38;;;8.75;;
31694;SDS011;18289;51.330;4.946;2024-03-23T04:44:54;25.95;;;9.02;;
31694;SDS011;18289;51.330;4.946;2024-03-23T04:47:20;30.45;;;9.55;;
31694;SDS011;18289;51.330;4.946;2024-03-23T04:49:46;23.90;;;9.75;;
31694;SDS011;18289;51.330;4.946;2024-03-23T04:52:12;20.75;;;7.95;;
31694;SDS011;18289;51.330;4.946;2024-03-23T04:54:38;21.33;;;8.00;;
31694;SDS011;18289;51.330;4.946;2024-03-23T04:57:05;21.83;;;8.63;;
31694;SDS011;18289;51.330;4.946;2024-03-23T04:59:31;20.10;;;8.30;;
31694;SDS011;18289;51.330;4.946;2024-03-23T05:01:58;22.05;;;8.85;;
31694;SDS011;18289;51.330;4.946;2024-03-23T05:04:24;23.27;;;8.90;;
31694;SDS011;18289;51.330;4.946;2024-03-23T05:06:50;27.35;;;9.80;;
31694;SDS011;18289;51.330;4.946;2024-03-23T05:09:16;23.88;;;8.73;;
31694;SDS011;18289;51.330;4.946;2024-03-23T05:11:42;20.98;;;8.73;;
31694;SDS011;18289;51.330;4.946;2024-03-23T05:14:08;19.23;;;8.18;;
31694;SDS011;18289;51.330;4.946;2024-03-23T05:16:33;19.38;;;7.80;;
31694;SDS011;18289;51.330;4.946;2024-03-23T05:18:59;26.73;;;8.18;;
31694;SDS011;18289;51.330;4.946;2024-03-23T05:21:25;23.15;;;8.30;;
31694;SDS011;18289;51.330;4.946;2024-03-23T05:23:51;22.60;;;8.80;;
31694;SDS011;18289;51.330;4.946;2024-03-23T05:26:19;17.50;;;7.53;;
31694;SDS011;18289;51.330;4.946;2024-03-23T05:28:44;24.00;;;8.00;;
31694;SDS011;18289;51.330;4.946;2024-03-23T05:31:10;17.38;;;7.55;;
31694;SDS011;18289;51.330;4.946;2024-03-23T05:33:36;24.00;;;8.18;;
31694;SDS011;18289;51.330;4.946;2024-03-23T05:36:05;22.40;;;7.18;;
31694;SDS011;18289;51.330;4.946;2024-03-23T05:38:33;21.75;;;7.28;;
31694;SDS011;18289;51.330;4.946;2024-03-23T05:40:59;21.48;;;6.80;;
31694;SDS011;18289;51.330;4.946;2024-03-23T05:43:26;19.40;;;7.07;;
31694;SDS011;18289;51.330;4.946;2024-03-23T05:45:56;19.20;;;7.13;;
31694;SDS011;18289;51.330;4.946;2024-03-23T05:48:23;23.42;;;7.22;;
31694;SDS011;18289;51.330;4.946;2024-03-23T05:50:49;14.25;;;6.25;;
31694;SDS011;18289;51.330;4.946;2024-03-23T05:53:15;13.63;;;6.50;;
31694;SDS011;18289;51.330;4.946;2024-03-23T05:55:42;16.48;;;6.72;;
31694;SDS011;18289;51.330;4.946;2024-03-23T05:58:08;14.10;;;6.70;;
31694;SDS011;18289;51.330;4.946;2024-03-23T06:00:34;24.45;;;7.13;;
31694;SDS011;18289;51.330;4.946;2024-03-23T06:03:00;19.77;;;6.53;;
31694;SDS011;18289;51.330;4.946;2024-03-23T06:05:25;19.17;;;6.45;;
31694;SDS011;18289;51.330;4.946;2024-03-23T06:07:51;17.92;;;5.70;;
31694;SDS011;18289;51.330;4.946;2024-03-23T06:10:18;15.77;;;6.07;;
31694;SDS011;18289;51.330;4.946;2024-03-23T06:15:12;19.30;;;5.57;;
31694;SDS011;18289;51.330;4.946;2024-03-23T06:17:38;18.23;;;5.50;;
31694;SDS011;18289;51.330;4.946;2024-03-23T06:20:04;15.05;;;5.60;;
31694;SDS011;18289;51.330;4.946;2024-03-23T06:22:35;17.77;;;5.00;;
31694;SDS011;18289;51.330;4.946;2024-03-23T06:25:01;27.50;;;6.00;;
31694;SDS011;18289;51.330;4.946;2024-03-23T06:27:27;16.33;;;5.53;;
31694;SDS011;18289;51.330;4.946;2024-03-23T06:29:53;15.68;;;6.88;;
31694;SDS011;18289;51.330;4.946;2024-03-23T06:32:20;19.65;;;6.00;;
31694;SDS011;18289;51.330;4.946;2024-03-23T06:34:45;15.32;;;5.38;;
31694;SDS011;18289;51.330;4.946;2024-03-23T06:37:11;19.42;;;5.25;;
31694;SDS011;18289;51.330;4.946;2024-03-23T06:39:37;22.88;;;5.50;;
31694;SDS011;18289;51.330;4.946;2024-03-23T06:42:03;16.15;;;4.72;;
31694;SDS011;18289;51.330;4.946;2024-03-23T06:44:30;14.23;;;5.22;;
31694;SDS011;18289;51.330;4.946;2024-03-23T06:46:56;14.10;;;5.18;;
31694;SDS011;18289;51.330;4.946;2024-03-23T06:49:24;14.20;;;4.53;;
31694;SDS011;18289;51.330;4.946;2024-03-23T06:51:50;15.23;;;4.45;;
31694;SDS011;18289;51.330;4.946;2024-03-23T06:54:16;15.10;;;4.65;;
31694;SDS011;18289;51.330;4.946;2024-03-23T06:56:46;12.57;;;3.97;;
31694;SDS011;18289;51.330;4.946;2024-03-23T06:59:12;12.80;;;4.28;;
31694;SDS011;18289;51.330;4.946;2024-03-23T07:01:37;10.77;;;4.78;;
31694;SDS011;18289;51.330;4.946;2024-03-23T07:04:03;13.95;;;4.07;;
31694;SDS011;18289;51.330;4.946;2024-03-23T07:06:30;17.98;;;5.13;;
31694;SDS011;18289;51.330;4.946;2024-03-23T07:08:56;16.27;;;4.82;;
31694;SDS011;18289;51.330;4.946;2024-03-23T07:11:22;19.30;;;5.30;;
31694;SDS011;18289;51.330;4.946;2024-03-23T07:13:49;18.70;;;5.78;;
31694;SDS011;18289;51.330;4.946;2024-03-23T07:16:16;27.17;;;5.47;;
31694;SDS011;18289;51.330;4.946;2024-03-23T07:18:42;17.08;;;5.47;;
31694;SDS011;18289;51.330;4.946;2024-03-23T07:21:08;15.20;;;5.20;;
31694;SDS011;18289;51.330;4.946;2024-03-23T07:23:34;19.40;;;4.82;;
31694;SDS011;18289;51.330;4.946;2024-03-23T07:26:01;19.63;;;5.00;;
31694;SDS011;18289;51.330;4.946;2024-03-23T07:28:29;16.52;;;4.90;;
31694;SDS011;18289;51.330;4.946;2024-03-23T07:33:35;14.75;;;4.75;;
31694;SDS011;18289;51.330;4.946;2024-03-23T07:36:11;18.40;;;5.18;;
31694;SDS011;18289;51.330;4.946;2024-03-23T07:38:37;11.00;;;3.83;;
31694;SDS011;18289;51.330;4.946;2024-03-23T07:41:05;13.55;;;3.40;;
31694;SDS011;18289;51.330;4.946;2024-03-23T07:43:35;11.15;;;3.97;;
31694;SDS011;18289;51.330;4.946;2024-03-23T07:46:02;9.27;;;3.63;;
31694;SDS011;18289;51.330;4.946;2024-03-23T07:48:31;11.27;;;3.33;;
31694;SDS011;18289;51.330;4.946;2024-03-23T07:51:01;7.82;;;2.83;;
31694;SDS011;18289;51.330;4.946;2024-03-23T07:53:29;9.13;;;3.13;;
31694;SDS011;18289;51.330;4.946;2024-03-23T07:55:59;9.90;;;2.75;;
31694;SDS011;18289;51.330;4.946;2024-03-23T07:58:32;11.95;;;3.38;;
31694;SDS011;18289;51.330;4.946;2024-03-23T08:01:03;8.63;;;2.97;;
31694;SDS011;18289;51.330;4.946;2024-03-23T08:03:34;5.10;;;2.00;;
31694;SDS011;18289;51.330;4.946;2024-03-23T08:06:10;9.75;;;2.72;;
31694;SDS011;18289;51.330;4.946;2024-03-23T08:08:37;8.25;;;2.65;;
31694;SDS011;18289;51.330;4.946;2024-03-23T08:11:07;8.05;;;2.55;;
31694;SDS011;18289;51.330;4.946;2024-03-23T08:13:34;8.77;;;3.65;;
31694;SDS011;18289;51.330;4.946;2024-03-23T08:16:01;10.43;;;2.72;;
31694;SDS011;18289;51.330;4.946;2024-03-23T08:18:28;10.70;;;2.80;;
31694;SDS011;18289;51.330;4.946;2024-03-23T08:23:22;11.10;;;3.42;;
31694;SDS011;18289;51.330;4.946;2024-03-23T08:25:49;13.88;;;3.08;;
31694;SDS011;18289;51.330;4.946;2024-03-23T08:28:14;7.80;;;2.63;;
31694;SDS011;18289;51.330;4.946;2024-03-23T08:30:40;7.80;;;3.03;;
31694;SDS011;18289;51.330;4.946;2024-03-23T08:33:06;10.93;;;3.53;;
31694;SDS011;18289;51.330;4.946;2024-03-23T08:35:31;9.88;;;3.03;;
31694;SDS011;18289;51.330;4.946;2024-03-23T08:37:57;14.52;;;2.83;;
31694;SDS011;18289;51.330;4.946;2024-03-23T08:40:23;12.30;;;3.28;;
31694;SDS011;18289;51.330;4.946;2024-03-23T08:42:49;7.55;;;2.55;;
31694;SDS011;18289;51.330;4.946;2024-03-23T08:45:15;6.30;;;2.85;;
31694;SDS011;18289;51.330;4.946;2024-03-23T08:50:08;5.85;;;2.40;;
31694;SDS011;18289;51.330;4.946;2024-03-23T08:52:34;9.63;;;2.35;;
31694;SDS011;18289;51.330;4.946;2024-03-23T08:55:00;7.07;;;2.50;;
31694;SDS011;18289;51.330;4.946;2024-03-23T08:57:26;9.23;;;3.10;;
31694;SDS011;18289;51.330;4.946;2024-03-23T08:59:52;8.95;;;3.53;;
31694;SDS011;18289;51.330;4.946;2024-03-23T09:02:18;11.15;;;3.83;;
31694;SDS011;18289;51.330;4.946;2024-03-23T09:04:44;15.32;;;3.67;;
31694;SDS011;18289;51.330;4.946;2024-03-23T09:07:10;9.35;;;2.60;;
31694;SDS011;18289;51.330;4.946;2024-03-23T09:09:39;7.07;;;2.60;;
31694;SDS011;18289;51.330;4.946;2024-03-23T09:12:05;8.17;;;2.80;;
31694;SDS011;18289;51.330;4.946;2024-03-23T09:14:32;6.72;;;2.58;;
31694;SDS011;18289;51.330;4.946;2024-03-23T09:16:59;5.60;;;1.88;;
31694;SDS011;18289;51.330;4.946;2024-03-23T09:19:27;9.02;;;2.42;;
31694;SDS011;18289;51.330;4.946;2024-03-23T09:21:55;7.15;;;2.63;;
31694;SDS011;18289;51.330;4.946;2024-03-23T09:24:21;6.50;;;1.75;;
31694;SDS011;18289;51.330;4.946;2024-03-23T09:26:47;9.20;;;2.40;;
31694;SDS011;18289;51.330;4.946;2024-03-23T09:29:13;9.27;;;3.20;;
31694;SDS011;18289;51.330;4.946;2024-03-23T09:31:39;8.35;;;2.20;;
31694;SDS011;18289;51.330;4.946;2024-03-23T09:34:06;8.82;;;2.50;;
31694;SDS011;18289;51.330;4.946;2024-03-23T09:36:31;9.80;;;2.30;;
31694;SDS011;18289;51.330;4.946;2024-03-23T09:38:57;9.85;;;2.30;;
31694;SDS011;18289;51.330;4.946;2024-03-23T09:41:23;8.93;;;2.20;;
31694;SDS011;18289;51.330;4.946;2024-03-23T09:43:52;6.97;;;2.10;;
31694;SDS011;18289;51.330;4.946;2024-03-23T09:46:18;7.32;;;2.60;;
31694;SDS011;18289;51.330;4.946;2024-03-23T09:48:46;6.50;;;1.88;;
31694;SDS011;18289;51.330;4.946;2024-03-23T09:51:12;2.90;;;1.20;;
31694;SDS011;18289;51.330;4.946;2024-03-23T09:53:38;1.48;;;1.20;;
31694;SDS011;18289;51.330;4.946;2024-03-23T09:56:04;1.30;;;0.80;;
31694;SDS011;18289;51.330;4.946;2024-03-23T09:58:30;2.92;;;1.13;;
31694;SDS011;18289;51.330;4.946;2024-03-23T10:00:57;1.30;;;0.90;;
31694;SDS011;18289;51.330;4.946;2024-03-23T10:03:23;3.45;;;1.13;;
31694;SDS011;18289;51.330;4.946;2024-03-23T10:06:00;2.42;;;1.40;;
31694;SDS011;18289;51.330;4.946;2024-03-23T10:08:30;3.38;;;1.45;;
31694;SDS011;18289;51.330;4.946;2024-03-23T10:10:58;3.92;;;1.40;;
31694;SDS011;18289;51.330;4.946;2024-03-23T10:13:43;4.85;;;1.60;;
31694;SDS011;18289;51.330;4.946;2024-03-23T10:16:11;3.97;;;1.60;;
31694;SDS011;18289;51.330;4.946;2024-03-23T10:18:37;4.75;;;2.15;;
31694;SDS011;18289;51.330;4.946;2024-03-23T10:21:09;3.15;;;1.45;;
31694;SDS011;18289;51.330;4.946;2024-03-23T10:26:16;4.65;;;1.55;;
31694;SDS011;18289;51.330;4.946;2024-03-23T10:28:56;3.95;;;1.83;;
31694;SDS011;18289;51.330;4.946;2024-03-23T10:31:27;7.05;;;2.20;;
31694;SDS011;18289;51.330;4.946;2024-03-23T10:33:53;8.88;;;2.03;;
31694;SDS011;18289;51.330;4.946;2024-03-23T10:36:20;7.93;;;2.53;;
31694;SDS011;18289;51.330;4.946;2024-03-23T10:38:47;8.00;;;2.60;;
31694;SDS011;18289;51.330;4.946;2024-03-23T10:41:14;6.32;;;2.15;;
31694;SDS011;18289;51.330;4.946;2024-03-23T10:43:40;5.50;;;1.60;;
31694;SDS011;18289;51.330;4.946;2024-03-23T10:46:07;3.72;;;1.60;;
31694;SDS011;18289;51.330;4.946;2024-03-23T10:48:34;3.72;;;1.70;;
31694;SDS011;18289;51.330;4.946;2024-03-23T10:51:00;5.63;;;1.73;;
31694;SDS011;18289;51.330;4.946;2024-03-23T10:53:27;5.72;;;1.65;;
31694;SDS011;18289;51.330;4.946;2024-03-23T10:55:54;6.72;;;1.65;;
31694;SDS011;18289;51.330;4.946;2024-03-23T10:58:23;3.72;;;1.52;;
31694;SDS011;18289;51.330;4.946;2024-03-23T11:00:58;5.25;;;1.58;;
31694;SDS011;18289;51.330;4.946;2024-03-23T11:03:34;7.55;;;1.88;;
31694;SDS011;18289;51.330;4.946;2024-03-23T11:06:02;6.85;;;1.83;;
31694;SDS011;18289;51.330;4.946;2024-03-23T11:08:32;5.20;;;1.85;;
31694;SDS011;18289;51.330;4.946;2024-03-23T11:11:12;3.85;;;1.60;;
31694;SDS011;18289;51.330;4.946;2024-03-23T11:13:38;7.07;;;2.35;;
31694;SDS011;18289;51.330;4.946;2024-03-23T11:22:05;4.57;;;1.92;;
31694;SDS011;18289;51.330;4.946;2024-03-23T11:24:33;8.25;;;2.35;;
31694;SDS011;18289;51.330;4.946;2024-03-23T11:27:02;7.50;;;2.20;;
31694;SDS011;18289;51.330;4.946;2024-03-23T11:29:40;2.08;;;1.40;;
31694;SDS011;18289;51.330;4.946;2024-03-23T11:32:07;4.05;;;1.70;;
31694;SDS011;18289;51.330;4.946;2024-03-23T11:34:38;6.53;;;2.00;;
31694;SDS011;18289;51.330;4.946;2024-03-23T11:37:04;1.83;;;1.17;;
31694;SDS011;18289;51.330;4.946;2024-03-23T11:42:03;4.00;;;1.58;;
31694;SDS011;18289;51.330;4.946;2024-03-23T11:44:29;1.60;;;1.27;;
31694;SDS011;18289;51.330;4.946;2024-03-23T11:46:55;3.17;;;1.38;;
31694;SDS011;18289;51.330;4.946;2024-03-23T11:49:33;1.83;;;1.00;;
31694;SDS011;18289;51.330;4.946;2024-03-23T11:54:33;2.05;;;1.10;;
31694;SDS011;18289;51.330;4.946;2024-03-23T11:57:03;2.50;;;1.20;;
31694;SDS011;18289;51.330;4.946;2024-03-23T12:01:59;1.00;;;1.00;;
31694;SDS011;18289;51.330;4.946;2024-03-23T12:04:28;2.38;;;0.93;;
31694;SDS011;18289;51.330;4.946;2024-03-23T12:09:40;2.10;;;0.90;;
31694;SDS011;18289;51.330;4.946;2024-03-23T12:14:33;0.80;;;0.80;;
31694;SDS011;18289;51.330;4.946;2024-03-23T12:17:12;0.95;;;0.95;;
31694;SDS011;18289;51.330;4.946;2024-03-23T12:22:06;2.63;;;0.95;;
31694;SDS011;18289;51.330;4.946;2024-03-23T12:24:32;0.95;;;0.90;;
31694;SDS011;18289;51.330;4.946;2024-03-23T12:27:04;1.48;;;1.02;;
31694;SDS011;18289;51.330;4.946;2024-03-23T12:29:33;0.90;;;0.90;;
31694;SDS011;18289;51.330;4.946;2024-03-23T12:32:00;3.17;;;1.17;;
31694;SDS011;18289;51.330;4.946;2024-03-23T12:34:27;1.58;;;1.00;;
31694;SDS011;18289;51.330;4.946;2024-03-23T12:36:53;3.65;;;1.17;;
31694;SDS011;18289;51.330;4.946;2024-03-23T12:39:19;4.15;;;1.50;;
31694;SDS011;18289;51.330;4.946;2024-03-23T12:41:48;3.40;;;1.55;;
31694;SDS011;18289;51.330;4.946;2024-03-23T12:44:14;4.10;;;1.75;;
31694;SDS011;18289;51.330;4.946;2024-03-23T12:46:40;3.88;;;1.50;;
31694;SDS011;18289;51.330;4.946;2024-03-23T12:49:07;3.55;;;1.50;;
31694;SDS011;18289;51.330;4.946;2024-03-23T12:51:33;3.42;;;1.45;;
31694;SDS011;18289;51.330;4.946;2024-03-23T12:53:59;2.38;;;1.33;;
31694;SDS011;18289;51.330;4.946;2024-03-23T12:56:27;4.30;;;1.60;;
31694;SDS011;18289;51.330;4.946;2024-03-23T12:58:54;4.60;;;1.98;;
31694;SDS011;18289;51.330;4.946;2024-03-23T13:01:22;4.88;;;1.85;;
31694;SDS011;18289;51.330;4.946;2024-03-23T13:03:48;5.55;;;2.72;;
31694;SDS011;18289;51.330;4.946;2024-03-23T13:06:15;7.07;;;3.15;;
31694;SDS011;18289;51.330;4.946;2024-03-23T13:08:43;8.35;;;4.68;;
31694;SDS011;18289;51.330;4.946;2024-03-23T13:11:10;8.18;;;3.80;;
31694;SDS011;18289;51.330;4.946;2024-03-23T13:13:36;12.20;;;6.22;;
31694;SDS011;18289;51.330;4.946;2024-03-23T13:16:02;19.58;;;10.85;;
31694;SDS011;18289;51.330;4.946;2024-03-23T13:18:29;14.48;;;8.73;;
31694;SDS011;18289;51.330;4.946;2024-03-23T13:20:55;8.85;;;3.13;;
31694;SDS011;18289;51.330;4.946;2024-03-23T13:23:21;18.30;;;8.18;;
31694;SDS011;18289;51.330;4.946;2024-03-23T13:25:55;4.57;;;3.25;;
31694;SDS011;18289;51.330;4.946;2024-03-23T13:28:21;4.93;;;1.85;;
31694;SDS011;18289;51.330;4.946;2024-03-23T13:33:29;6.07;;;1.83;;
31694;SDS011;18289;51.330;4.946;2024-03-23T13:35:57;7.07;;;2.10;;
31694;SDS011;18289;51.330;4.946;2024-03-23T13:38:23;3.53;;;1.63;;
31694;SDS011;18289;51.330;4.946;2024-03-23T13:40:55;4.60;;;2.10;;
31694;SDS011;18289;51.330;4.946;2024-03-23T13:43:22;2.60;;;1.77;;
31694;SDS011;18289;51.330;4.946;2024-03-23T13:45:50;5.72;;;2.13;;
31694;SDS011;18289;51.330;4.946;2024-03-23T13:50:44;4.75;;;1.67;;
31694;SDS011;18289;51.330;4.946;2024-03-23T13:53:12;4.15;;;1.60;;
31694;SDS011;18289;51.330;4.946;2024-03-23T13:55:43;5.20;;;2.42;;
31694;SDS011;18289;51.330;4.946;2024-03-23T14:00:40;3.22;;;1.70;;
31694;SDS011;18289;51.330;4.946;2024-03-23T14:03:09;4.32;;;1.70;;
31694;SDS011;18289;51.330;4.946;2024-03-23T14:05:36;5.55;;;1.50;;
31694;SDS011;18289;51.330;4.946;2024-03-23T14:08:04;3.92;;;1.55;;
31694;SDS011;18289;51.330;4.946;2024-03-23T14:10:30;3.33;;;1.30;;
31694;SDS011;18289;51.330;4.946;2024-03-23T14:12:56;4.35;;;1.40;;
31694;SDS011;18289;51.330;4.946;2024-03-23T14:15:22;3.83;;;1.30;;
31694;SDS011;18289;51.330;4.946;2024-03-23T14:17:48;3.30;;;1.60;;
31694;SDS011;18289;51.330;4.946;2024-03-23T14:20:14;2.00;;;1.33;;
31694;SDS011;18289;51.330;4.946;2024-03-23T14:22:40;12.90;;;8.32;;
31694;SDS011;18289;51.330;4.946;2024-03-23T14:25:06;6.00;;;3.63;;
31694;SDS011;18289;51.330;4.946;2024-03-23T14:27:32;2.60;;;1.92;;
31694;SDS011;18289;51.330;4.946;2024-03-23T14:32:31;1.30;;;1.20;;
31694;SDS011;18289;51.330;4.946;2024-03-23T14:35:01;1.15;;;0.90;;
31694;SDS011;18289;51.330;4.946;2024-03-23T14:37:27;0.95;;;0.95;;
31694;SDS011;18289;51.330;4.946;2024-03-23T14:39:55;1.35;;;1.10;;
31694;SDS011;18289;51.330;4.946;2024-03-23T14:42:23;3.45;;;1.30;;
31694;SDS011;18289;51.330;4.946;2024-03-23T14:44:52;2.95;;;1.30;;
31694;SDS011;18289;51.330;4.946;2024-03-23T14:47:18;2.50;;;1.27;;
31694;SDS011;18289;51.330;4.946;2024-03-23T14:49:44;1.88;;;1.40;;
31694;SDS011;18289;51.330;4.946;2024-03-23T14:52:15;1.20;;;1.10;;
31694;SDS011;18289;51.330;4.946;2024-03-23T14:57:11;2.00;;;1.70;;
31694;SDS011;18289;51.330;4.946;2024-03-23T14:59:37;4.13;;;1.40;;
31694;SDS011;18289;51.330;4.946;2024-03-23T15:02:03;1.65;;;1.05;;
31694;SDS011;18289;51.330;4.946;2024-03-23T15:04:29;2.58;;;1.27;;
31694;SDS011;18289;51.330;4.946;2024-03-23T15:09:22;1.60;;;1.48;;
31694;SDS011;18289;51.330;4.946;2024-03-23T15:11:48;5.53;;;1.45;;
31694;SDS011;18289;51.330;4.946;2024-03-23T15:14:14;2.65;;;1.40;;
31694;SDS011;18289;51.330;4.946;2024-03-23T15:16:39;2.60;;;1.20;;
31694;SDS011;18289;51.330;4.946;2024-03-23T15:19:07;2.10;;;1.70;;
31694;SDS011;18289;51.330;4.946;2024-03-23T15:21:36;2.83;;;1.35;;
31694;SDS011;18289;51.330;4.946;2024-03-23T15:24:02;6.22;;;4.15;;
31694;SDS011;18289;51.330;4.946;2024-03-23T15:26:28;4.45;;;2.30;;
31694;SDS011;18289;51.330;4.946;2024-03-23T15:28:53;3.45;;;1.75;;
31694;SDS011;18289;51.330;4.946;2024-03-23T15:31:22;2.13;;;1.50;;
31694;SDS011;18289;51.330;4.946;2024-03-23T15:33:48;3.17;;;1.65;;
31694;SDS011;18289;51.330;4.946;2024-03-23T15:36:14;6.30;;;1.83;;
31694;SDS011;18289;51.330;4.946;2024-03-23T15:38:40;2.05;;;1.83;;
31694;SDS011;18289;51.330;4.946;2024-03-23T15:41:09;1.67;;;1.50;;
31694;SDS011;18289;51.330;4.946;2024-03-23T15:43:37;2.65;;;2.15;;
31694;SDS011;18289;51.330;4.946;2024-03-23T15:46:04;4.78;;;2.85;;
31694;SDS011;18289;51.330;4.946;2024-03-23T15:48:35;5.38;;;4.45;;
31694;SDS011;18289;51.330;4.946;2024-03-23T15:51:02;4.88;;;3.80;;
31694;SDS011;18289;51.330;4.946;2024-03-23T15:53:32;26.20;;;23.55;;
31694;SDS011;18289;51.330;4.946;2024-03-23T15:55:58;3.13;;;2.40;;
31694;SDS011;18289;51.330;4.946;2024-03-23T15:58:29;1.60;;;1.50;;
31694;SDS011;18289;51.330;4.946;2024-03-23T16:00:56;4.47;;;2.97;;
31694;SDS011;18289;51.330;4.946;2024-03-23T16:03:22;2.42;;;1.60;;
31694;SDS011;18289;51.330;4.946;2024-03-23T16:05:55;3.55;;;1.80;;
31694;SDS011;18289;51.330;4.946;2024-03-23T16:08:32;2.58;;;1.70;;
31694;SDS011;18289;51.330;4.946;2024-03-23T16:11:02;2.45;;;2.20;;
31694;SDS011;18289;51.330;4.946;2024-03-23T16:13:29;5.25;;;3.47;;
31694;SDS011;18289;51.330;4.946;2024-03-23T16:15:58;7.45;;;5.53;;
31694;SDS011;18289;51.330;4.946;2024-03-23T16:18:26;7.18;;;5.03;;
31694;SDS011;18289;51.330;4.946;2024-03-23T16:20:55;8.25;;;6.30;;
31694;SDS011;18289;51.330;4.946;2024-03-23T16:23:22;22.60;;;18.13;;